KORL/ORL METAR and TAF weather

Enter ICAO airport designator
Station Type Date Time Source
KORL METAR 2019/02/18 04:53 UTC NOAA

KORL 180453Z AUTO 22005KT 10SM CLR 22/17 A3002 RMK AO2 SLP168 T02220167 402940167


Station Type Date Time Source
KORL Decoded METAR 2019/02/18 04:53 UTC NOAA

ORLANDO EXECUTIVE AIRPORT, FL, United States (KORL) 28-33N 081-20W 37M
Feb 17, 2019 - 11:53 PM EST / 2019.02.18 0453 UTC
Wind: from the SW (220 degrees) at 6 MPH (5 KT):0
Visibility: 10 mile(s):0
Sky conditions: clear
Temperature: 72.0 F (22.2 C)
Dew Point: 62.1 F (16.7 C)
Relative Humidity: 71%
Pressure (altimeter): 30.02 in. Hg (1016 hPa)
ob: KORL 180453Z AUTO 22005KT 10SM CLR 22/17 A3002 RMK AO2 SLP168 T02220167 402940167
cycle: 5

Station Type Date Time Source
KORL TAF UTC NOAA

Error!


Example: see airport list